Time;durP1;ratioP1;P1;durP2;ratioP2;P2;SDS_P1;SDS_P2;PMS_P1;PMS_P2;Temp;Humidity;BMP_temperature;BMP_pressure;BME280_temperature;BME280_humidity;BME280_pressure;Samples;Min_cycle;Max_cycle;Signal;HPM_P1;HPM_P2
2022/11/29 00:01:41;;;;;;;22.75;17.08;;;3.40;99.90;;;;;;5012668;28;20414;-93
2022/11/29 00:04:11;;;;;;;26.52;18.42;;;3.50;99.90;;;;;;5019015;28;20317;-93
2022/11/29 00:06:39;;;;;;;21.15;15.18;;;3.50;99.90;;;;;;5012532;28;20221;-89
2022/11/29 00:09:12;;;;;;;19.85;15.60;;;3.50;99.90;;;;;;5011844;28;20225;-88
2022/11/29 00:14:28;;;;;;;21.83;16.77;;;3.50;99.90;;;;;;5012036;28;20241;-89
2022/11/29 00:17:01;;;;;;;19.38;15.18;;;3.40;99.90;;;;;;5011896;28;20213;-89
2022/11/29 00:19:30;;;;;;;25.40;16.48;;;3.40;99.90;;;;;;5011875;28;20203;-88
2022/11/29 00:21:59;;;;;;;25.05;17.92;;;3.40;99.90;;;;;;5011423;28;20210;-93
2022/11/29 00:24:30;;;;;;;19.45;16.00;;;3.40;99.90;;;;;;5010946;28;20219;-93
2022/11/29 00:26:59;;;;;;;24.13;17.13;;;3.40;99.90;;;;;;5011159;28;20211;-93
2022/11/29 00:29:28;;;;;;;21.15;16.45;;;3.40;99.90;;;;;;5011774;28;20306;-93
2022/11/29 00:31:58;;;;;;;25.52;16.40;;;3.50;99.90;;;;;;5011576;28;20241;-93
2022/11/29 00:34:27;;;;;;;19.95;17.02;;;3.50;99.90;;;;;;5011466;28;20215;-93
2022/11/29 00:36:55;;;;;;;20.77;16.27;;;3.40;99.90;;;;;;5013554;28;20218;-94
2022/11/29 00:39:23;;;;;;;27.55;17.35;;;3.40;99.90;;;;;;5019212;28;20250;-93
2022/11/29 00:41:52;;;;;;;27.25;16.98;;;3.40;99.90;;;;;;5011676;28;20209;-93
2022/11/29 00:44:20;;;;;;;31.02;17.90;;;3.40;99.90;;;;;;5011801;28;20223;-93
2022/11/29 00:46:49;;;;;;;19.73;17.10;;;3.40;99.90;;;;;;5011465;28;20442;-93
2022/11/29 00:49:18;;;;;;;25.95;17.00;;;3.40;99.90;;;;;;5011443;28;20219;-94
2022/11/29 00:51:47;;;;;;;21.05;15.73;;;3.40;99.90;;;;;;5011324;28;20229;-93
2022/11/29 00:54:15;;;;;;;21.95;17.55;;;3.40;99.90;;;;;;5011090;28;20235;-93
2022/11/29 00:56:44;;;;;;;23.50;16.10;;;3.30;99.90;;;;;;5011312;28;20215;-93
2022/11/29 00:59:12;;;;;;;20.08;16.73;;;3.40;99.90;;;;;;5011145;28;20215;-93
2022/11/29 01:01:40;;;;;;;23.65;17.58;;;3.30;99.90;;;;;;5010961;28;20218;-93
2022/11/29 01:04:09;;;;;;;27.77;18.63;;;3.40;99.90;;;;;;5010784;28;20262;-93
2022/11/29 01:06:39;;;;;;;33.00;17.33;;;3.40;99.90;;;;;;5011365;28;20211;-93
2022/11/29 01:09:07;;;;;;;25.85;17.25;;;3.40;99.90;;;;;;5011077;28;20225;-94
2022/11/29 01:11:36;;;;;;;24.58;17.67;;;3.40;99.90;;;;;;5009982;28;20227;-93
2022/11/29 01:14:04;;;;;;;20.30;17.13;;;3.40;99.90;;;;;;5010776;28;20229;-93
2022/11/29 01:16:33;;;;;;;22.25;16.67;;;3.50;99.90;;;;;;5010834;28;20216;-95
2022/11/29 01:19:01;;;;;;;19.05;15.63;;;3.50;99.90;;;;;;5010520;28;20219;-93
2022/11/29 01:21:30;;;;;;;17.58;14.82;;;3.50;99.90;;;;;;5010899;28;20215;-93
2022/11/29 01:24:00;;;;;;;21.45;16.23;;;3.40;99.90;;;;;;5010618;28;20239;-93
2022/11/29 01:26:30;;;;;;;19.35;15.43;;;3.40;99.90;;;;;;5011013;28;20237;-92
2022/11/29 01:28:59;;;;;;;21.10;17.35;;;3.40;99.90;;;;;;5010802;28;20299;-92
2022/11/29 01:31:30;;;;;;;21.17;16.73;;;3.40;99.90;;;;;;5010955;28;20215;-94
2022/11/29 01:34:01;;;;;;;20.40;15.10;;;3.30;99.90;;;;;;5010908;28;20227;-93
2022/11/29 01:36:30;;;;;;;20.75;15.90;;;3.40;99.90;;;;;;5014968;28;20217;-94
2022/11/29 01:39:01;;;;;;;21.65;17.00;;;3.40;99.90;;;;;;5014714;28;20210;-92
2022/11/29 01:41:32;;;;;;;23.45;16.30;;;3.40;99.90;;;;;;5015106;28;20211;-94
2022/11/29 01:44:03;;;;;;;17.80;15.52;;;3.30;99.90;;;;;;5016886;28;20233;-93
2022/11/29 01:46:34;;;;;;;22.55;16.52;;;3.40;99.90;;;;;;5016723;28;20211;-93
2022/11/29 01:49:08;;;;;;;21.00;16.77;;;3.40;99.90;;;;;;5017017;28;20206;-94
2022/11/29 01:51:38;;;;;;;23.15;16.98;;;3.30;99.90;;;;;;5020018;28;20211;-93
2022/11/29 01:54:10;;;;;;;26.80;17.63;;;3.30;99.90;;;;;;5026307;28;20227;-94
2022/11/29 01:56:39;;;;;;;20.17;15.15;;;3.20;99.90;;;;;;5021171;28;20214;-93
2022/11/29 01:59:12;;;;;;;18.13;14.70;;;3.30;99.90;;;;;;5016458;28;20207;-94
2022/11/29 02:01:41;;;;;;;20.70;14.55;;;3.20;99.90;;;;;;5016584;28;20219;-93
2022/11/29 02:04:09;;;;;;;19.17;14.18;;;3.20;99.90;;;;;;5016846;28;20235;-93
2022/11/29 02:06:39;;;;;;;19.65;15.45;;;3.10;99.90;;;;;;5016120;28;20258;-93
2022/11/29 02:09:18;;;;;;;24.60;17.73;;;3.10;99.90;;;;;;5016442;28;20206;-93
2022/11/29 02:12:12;;;;;;;22.52;16.75;;;3.10;99.90;;;;;;5016113;28;20219;-92
2022/11/29 02:15:01;;;;;;;21.83;14.45;;;3.00;99.90;;;;;;5014709;28;20217;-93
2022/11/29 02:17:37;;;;;;;19.58;14.88;;;3.00;99.90;;;;;;5015957;28;20242;-92
2022/11/29 02:20:37;;;;;;;19.95;15.38;;;3.00;99.90;;;;;;5016193;28;20210;-93
2022/11/29 02:23:27;;;;;;;36.25;16.23;;;3.10;99.90;;;;;;5016069;28;20225;-93
2022/11/29 02:26:11;;;;;;;22.90;15.30;;;3.00;99.90;;;;;;5016067;28;20217;-93
2022/11/29 02:29:11;;;;;;;19.02;15.07;;;3.10;99.90;;;;;;5016035;28;20203;-93
2022/11/29 02:32:17;;;;;;;16.90;14.23;;;3.10;99.90;;;;;;4996002;28;20215;-93
2022/11/29 02:35:05;;;;;;;20.05;14.95;;;3.10;99.90;;;;;;5016264;28;20199;-93
2022/11/29 02:37:57;;;;;;;29.05;15.32;;;3.10;99.90;;;;;;5016086;28;20199;-92
2022/11/29 02:40:48;;;;;;;21.48;14.45;;;3.10;99.90;;;;;;5015656;28;20213;-93
2022/11/29 02:43:32;;;;;;;15.65;13.20;;;3.10;99.90;;;;;;5014351;28;20227;-93
2022/11/29 02:46:12;;;;;;;18.80;13.93;;;3.00;99.90;;;;;;5014713;28;20199;-93
2022/11/29 02:48:53;;;;;;;18.67;15.27;;;3.00;99.90;;;;;;5015249;28;20210;-93
2022/11/29 02:51:29;;;;;;;20.77;14.40;;;3.00;99.90;;;;;;5015753;28;20202;-91
2022/11/29 02:54:06;;;;;;;39.92;15.88;;;3.00;99.90;;;;;;5015434;28;20230;-93
2022/11/29 02:56:43;;;;;;;19.75;14.73;;;3.00;99.90;;;;;;5015556;28;20206;-93
2022/11/29 02:59:20;;;;;;;20.77;14.38;;;3.00;99.90;;;;;;5015221;28;20215;-93
2022/11/29 03:01:58;;;;;;;18.88;15.48;;;2.90;99.90;;;;;;5015468;28;20213;-92
2022/11/29 03:04:33;;;;;;;21.92;14.57;;;3.00;99.90;;;;;;5015467;28;20230;-92
2022/11/29 03:07:10;;;;;;;22.02;14.60;;;3.00;99.90;;;;;;5018914;28;20213;-92
2022/11/29 03:09:43;;;;;;;24.40;17.13;;;2.90;99.90;;;;;;5020676;28;20285;-93
2022/11/29 03:12:22;;;;;;;17.88;14.10;;;2.90;99.90;;;;;;5015000;28;20204;-93
2022/11/29 03:14:57;;;;;;;23.38;14.48;;;2.90;99.90;;;;;;5015397;28;20242;-92
2022/11/29 03:17:37;;;;;;;20.75;14.75;;;2.90;99.90;;;;;;5014980;28;20209;-92
2022/11/29 03:20:27;;;;;;;20.45;14.43;;;2.90;99.90;;;;;;5015413;28;20207;-93
2022/11/29 03:23:14;;;;;;;17.23;14.32;;;2.90;99.90;;;;;;5015172;28;20223;-93
2022/11/29 03:25:46;;;;;;;19.88;15.82;;;2.90;99.90;;;;;;5015078;28;20206;-93
2022/11/29 03:28:19;;;;;;;21.55;16.17;;;3.00;99.90;;;;;;5014572;28;20214;-92
2022/11/29 03:30:58;;;;;;;25.30;15.13;;;2.90;99.90;;;;;;5015206;28;20214;-93
2022/11/29 03:33:36;;;;;;;28.50;16.63;;;2.90;99.90;;;;;;5014811;28;20226;-92
2022/11/29 03:36:14;;;;;;;23.27;15.50;;;2.90;99.90;;;;;;5014993;28;20211;-93
2022/11/29 03:38:44;;;;;;;18.95;14.63;;;3.00;99.90;;;;;;5014313;28;20210;-94
2022/11/29 03:41:20;;;;;;;21.58;15.27;;;3.00;99.90;;;;;;5014355;28;20262;-92
2022/11/29 03:43:57;;;;;;;17.95;14.52;;;3.00;99.90;;;;;;5014714;28;20227;-92
2022/11/29 03:46:32;;;;;;;19.52;15.48;;;3.00;99.90;;;;;;5014796;28;20212;-93
2022/11/29 03:49:04;;;;;;;20.23;15.50;;;3.00;99.90;;;;;;5014313;28;20234;-93
2022/11/29 03:51:52;;;;;;;24.13;15.68;;;3.00;99.90;;;;;;5014812;28;20203;-93
2022/11/29 03:54:25;;;;;;;15.30;13.57;;;2.90;99.90;;;;;;5014237;28;20229;-93
2022/11/29 03:56:54;;;;;;;19.67;15.02;;;3.00;99.90;;;;;;5014537;28;20203;-93
2022/11/29 03:59:32;;;;;;;22.65;14.95;;;3.00;99.90;;;;;;5013315;28;20214;-93
2022/11/29 04:02:29;;;;;;;18.92;14.40;;;3.00;99.90;;;;;;5015003;28;20221;-93
2022/11/29 04:05:19;;;;;;;17.63;13.57;;;3.00;99.90;;;;;;5014832;28;20211;-93
2022/11/29 04:08:35;;;;;;;17.45;14.88;;;3.00;99.90;;;;;;5014432;28;20214;-94
2022/11/29 04:11:32;;;;;;;16.83;14.50;;;3.00;99.90;;;;;;5020071;28;20473;-93
2022/11/29 04:14:26;;;;;;;27.55;15.73;;;3.10;99.90;;;;;;5005721;28;20227;-94
2022/11/29 04:17:38;;;;;;;18.15;14.45;;;3.10;99.90;;;;;;5014171;28;20218;-93
2022/11/29 04:20:35;;;;;;;17.95;14.15;;;3.10;99.90;;;;;;5013867;28;20203;-93
2022/11/29 04:23:37;;;;;;;23.08;16.52;;;3.10;99.90;;;;;;5021710;28;20218;-93
2022/11/29 04:26:34;;;;;;;21.08;15.32;;;3.10;99.90;;;;;;5014887;28;20199;-93
2022/11/29 04:29:25;;;;;;;20.40;14.73;;;3.10;99.90;;;;;;5014108;28;20222;-93
2022/11/29 04:32:11;;;;;;;20.35;14.90;;;3.20;99.90;;;;;;5020262;28;20211;-93
2022/11/29 04:35:01;;;;;;;18.65;14.25;;;3.20;99.90;;;;;;5013478;28;20228;-93
2022/11/29 04:37:52;;;;;;;20.52;14.35;;;3.20;99.90;;;;;;5013498;28;20294;-94
2022/11/29 04:40:41;;;;;;;19.27;14.48;;;3.20;99.90;;;;;;5014052;28;20295;-93
2022/11/29 04:43:28;;;;;;;18.77;14.70;;;3.20;99.90;;;;;;5013389;28;20231;-93
2022/11/29 04:46:36;;;;;;;24.85;15.65;;;3.10;99.90;;;;;;5013169;28;20211;-93
2022/11/29 04:49:25;;;;;;;19.42;15.63;;;3.10;99.90;;;;;;5013113;28;20203;-93
2022/11/29 04:52:17;;;;;;;20.30;15.80;;;3.20;99.90;;;;;;5013442;28;20213;-94
2022/11/29 04:54:52;;;;;;;17.80;14.23;;;3.20;99.90;;;;;;5013028;28;20230;-93
2022/11/29 04:57:32;;;;;;;19.30;14.90;;;3.10;99.90;;;;;;5013343;28;20210;-93
2022/11/29 05:00:08;;;;;;;20.63;15.93;;;3.20;99.90;;;;;;5013028;28;20293;-93
2022/11/29 05:02:45;;;;;;;17.98;14.05;;;3.20;99.90;;;;;;5013639;28;20226;-93
2022/11/29 05:05:24;;;;;;;23.42;17.02;;;3.10;99.90;;;;;;5013221;28;20214;-93
2022/11/29 05:08:07;;;;;;;17.77;14.80;;;3.10;99.90;;;;;;5013241;28;20203;-93
2022/11/29 05:10:42;;;;;;;22.33;17.35;;;3.10;99.90;;;;;;5012981;28;20207;-93
2022/11/29 05:13:20;;;;;;;23.08;16.35;;;3.10;99.90;;;;;;5013034;28;20234;-93
2022/11/29 05:16:10;;;;;;;19.95;16.35;;;3.10;99.90;;;;;;5013361;28;20207;-93
2022/11/29 05:19:11;;;;;;;26.00;17.48;;;3.10;99.90;;;;;;5013261;28;20269;-93
2022/11/29 05:21:50;;;;;;;23.70;18.35;;;3.10;99.90;;;;;;5012933;28;20218;-93
2022/11/29 05:24:31;;;;;;;21.63;17.52;;;3.10;99.90;;;;;;5013097;28;20227;-93
2022/11/29 05:27:08;;;;;;;21.55;17.52;;;3.10;99.90;;;;;;5012769;28;20207;-93
2022/11/29 05:29:46;;;;;;;24.08;17.42;;;3.10;99.90;;;;;;5013090;28;20217;-93
2022/11/29 05:32:31;;;;;;;26.33;17.17;;;3.10;99.90;;;;;;5012844;28;20298;-94
2022/11/29 05:35:29;;;;;;;25.45;19.08;;;3.10;99.90;;;;;;5013043;28;20317;-93
2022/11/29 05:38:04;;;;;;;23.00;17.50;;;3.10;99.90;;;;;;5018852;28;20207;-93
2022/11/29 05:40:54;;;;;;;19.98;16.60;;;3.10;99.90;;;;;;5015453;28;20301;-94
2022/11/29 05:43:41;;;;;;;21.70;18.20;;;3.10;99.90;;;;;;5013102;28;20227;-93
2022/11/29 05:46:19;;;;;;;26.35;18.60;;;3.10;99.90;;;;;;5012885;28;20219;-93
2022/11/29 05:48:56;;;;;;;24.20;19.20;;;3.00;99.90;;;;;;5012611;28;20292;-93
2022/11/29 05:51:38;;;;;;;23.55;19.45;;;3.00;99.90;;;;;;5012738;28;20203;-94
2022/11/29 05:54:23;;;;;;;25.27;18.55;;;3.00;99.90;;;;;;5012638;28;20223;-93
2022/11/29 05:57:04;;;;;;;24.33;18.70;;;3.00;99.90;;;;;;5012443;28;20214;-94
2022/11/29 05:59:37;;;;;;;28.88;20.30;;;3.10;99.90;;;;;;5013277;28;20215;-93
2022/11/29 06:02:17;;;;;;;26.30;18.75;;;3.10;99.90;;;;;;5013159;28;20215;-93
2022/11/29 06:04:57;;;;;;;29.98;20.23;;;3.00;99.90;;;;;;5012608;28;20213;-93
2022/11/29 06:07:32;;;;;;;26.00;19.50;;;3.00;99.90;;;;;;5012352;28;20209;-93
2022/11/29 06:10:05;;;;;;;24.70;20.00;;;3.10;99.90;;;;;;5012802;28;20210;-93
2022/11/29 06:12:36;;;;;;;26.58;19.75;;;3.00;99.90;;;;;;5013027;28;20235;-93
2022/11/29 06:15:35;;;;;;;24.95;19.05;;;3.00;99.90;;;;;;5012669;28;20223;-94
2022/11/29 06:18:25;;;;;;;23.42;19.27;;;3.10;99.90;;;;;;5009103;28;20203;-94
2022/11/29 06:21:06;;;;;;;27.17;20.55;;;3.10;99.90;;;;;;5012578;28;20235;-93
2022/11/29 06:23:47;;;;;;;27.70;20.20;;;3.10;99.90;;;;;;5016131;28;20219;-93
2022/11/29 06:26:48;;;;;;;24.40;19.10;;;3.10;99.90;;;;;;5016033;28;20203;-93
2022/11/29 06:29:25;;;;;;;30.38;21.27;;;3.10;99.90;;;;;;5016428;28;20199;-93
2022/11/29 06:32:00;;;;;;;25.33;20.33;;;3.10;99.90;;;;;;5015943;28;20211;-93
2022/11/29 06:34:42;;;;;;;28.52;19.23;;;3.10;99.90;;;;;;5015776;28;20234;-92
2022/11/29 06:37:17;;;;;;;25.00;19.40;;;3.10;99.90;;;;;;5016020;28;20374;-93
2022/11/29 06:39:45;;;;;;;32.20;21.55;;;3.10;99.90;;;;;;5015950;28;20213;-93
2022/11/29 06:42:14;;;;;;;22.35;18.85;;;3.10;99.90;;;;;;5015866;28;20207;-93
2022/11/29 06:44:42;;;;;;;26.92;20.63;;;3.10;99.90;;;;;;5015761;28;20209;-94
2022/11/29 06:47:19;;;;;;;23.13;19.92;;;3.20;99.90;;;;;;5015854;28;20245;-93
2022/11/29 06:49:53;;;;;;;28.00;19.60;;;3.10;99.90;;;;;;5015454;28;20205;-93
2022/11/29 06:52:32;;;;;;;27.23;19.83;;;3.10;99.90;;;;;;5021649;28;20210;-93
2022/11/29 06:55:13;;;;;;;29.75;19.15;;;3.20;99.90;;;;;;5019848;28;20227;-93
2022/11/29 06:57:56;;;;;;;22.00;18.58;;;3.20;99.90;;;;;;5015463;28;20241;-93
2022/11/29 07:00:26;;;;;;;23.88;19.48;;;3.20;99.90;;;;;;5015457;28;20203;-93
2022/11/29 07:03:19;;;;;;;24.20;19.90;;;3.20;99.90;;;;;;5015413;28;20227;-93
2022/11/29 07:05:50;;;;;;;27.75;18.90;;;3.20;99.90;;;;;;5015672;28;20205;-93
2022/11/29 07:08:21;;;;;;;22.23;17.95;;;3.20;99.90;;;;;;5015352;28;20211;-93
2022/11/29 07:10:52;;;;;;;23.27;19.77;;;3.30;99.90;;;;;;5015333;28;20207;-93
2022/11/29 07:13:21;;;;;;;44.78;21.15;;;3.30;99.90;;;;;;5015439;28;20227;-94
2022/11/29 07:15:59;;;;;;;34.28;19.63;;;3.30;99.90;;;;;;5014971;28;20258;-93
2022/11/29 07:18:34;;;;;;;24.25;18.00;;;3.40;99.90;;;;;;5015053;28;20214;-94
2022/11/29 07:21:13;;;;;;;25.50;20.52;;;3.40;99.90;;;;;;5015308;28;20216;-94
2022/11/29 07:23:54;;;;;;;21.77;19.30;;;3.40;99.90;;;;;;5014972;28;20231;-93
2022/11/29 07:26:30;;;;;;;34.58;20.55;;;3.40;99.90;;;;;;5015065;28;20214;-94
2022/11/29 07:29:11;;;;;;;35.47;20.05;;;3.40;99.90;;;;;;5014526;28;20232;-93
2022/11/29 07:31:49;;;;;;;22.58;18.20;;;3.40;99.90;;;;;;5014930;28;20210;-93
2022/11/29 07:34:25;;;;;;;30.63;20.17;;;3.50;99.90;;;;;;5014384;28;20235;-93
2022/11/29 07:37:03;;;;;;;22.67;17.50;;;3.50;99.90;;;;;;5014479;28;20207;-93
2022/11/29 07:39:42;;;;;;;21.83;18.88;;;3.50;99.90;;;;;;5014747;28;20218;-92
2022/11/29 07:42:18;;;;;;;24.90;19.05;;;3.60;99.90;;;;;;5014700;28;20211;-92
2022/11/29 07:44:56;;;;;;;27.70;19.58;;;3.60;99.90;;;;;;5013823;28;20199;-92
2022/11/29 07:47:24;;;;;;;25.63;19.02;;;3.70;99.90;;;;;;5014255;28;20213;-94
2022/11/29 07:49:57;;;;;;;19.58;17.48;;;3.70;99.90;;;;;;5014463;28;20205;-93
2022/11/29 07:52:27;;;;;;;20.17;17.48;;;3.70;99.90;;;;;;5014453;28;20209;-93
2022/11/29 07:54:56;;;;;;;25.85;18.83;;;3.70;99.90;;;;;;5013868;28;20237;-93
2022/11/29 07:57:24;;;;;;;17.92;15.48;;;3.70;99.90;;;;;;5014173;28;20207;-93
2022/11/29 07:59:53;;;;;;;22.80;18.05;;;3.70;99.90;;;;;;5014131;28;20218;-93
2022/11/29 08:02:27;;;;;;;26.05;19.88;;;3.70;99.90;;;;;;5014139;28;20221;-92
2022/11/29 08:04:56;;;;;;;20.55;16.88;;;3.70;99.90;;;;;;5014181;28;20234;-94
2022/11/29 08:07:26;;;;;;;21.65;16.05;;;3.70;99.90;;;;;;5018306;28;20207;-93
2022/11/29 08:09:54;;;;;;;21.33;18.23;;;3.70;99.90;;;;;;5019903;28;20210;-93
2022/11/29 08:12:22;;;;;;;22.00;17.35;;;3.70;99.90;;;;;;5014288;28;20213;-93
2022/11/29 08:14:51;;;;;;;23.98;18.60;;;3.70;99.90;;;;;;5013770;28;20213;-93
2022/11/29 08:17:19;;;;;;;23.48;17.52;;;3.80;99.90;;;;;;5013807;28;20207;-89
2022/11/29 08:19:47;;;;;;;22.70;19.20;;;3.80;99.90;;;;;;5013448;28;20209;-88
2022/11/29 08:22:15;;;;;;;26.70;18.92;;;3.90;99.90;;;;;;5013433;28;20214;-89
2022/11/29 08:24:45;;;;;;;25.48;19.45;;;3.90;99.90;;;;;;5013831;28;20207;-93
2022/11/29 08:27:14;;;;;;;20.90;18.48;;;4.00;99.90;;;;;;5013788;28;20217;-93
2022/11/29 08:29:42;;;;;;;20.45;17.73;;;4.00;99.90;;;;;;5014242;28;20293;-93
2022/11/29 08:32:11;;;;;;;19.98;17.30;;;4.00;99.90;;;;;;5014030;28;20209;-93
2022/11/29 08:34:39;;;;;;;22.67;16.33;;;4.10;99.90;;;;;;5013694;28;20207;-93
2022/11/29 08:37:08;;;;;;;24.42;17.92;;;4.00;99.90;;;;;;5013338;28;20219;-93
2022/11/29 08:39:36;;;;;;;23.52;18.58;;;4.00;99.90;;;;;;5018220;28;20257;-93
2022/11/29 08:42:06;;;;;;;20.02;17.00;;;4.10;99.90;;;;;;5013216;28;20207;-94
2022/11/29 08:44:34;;;;;;;19.13;17.08;;;4.00;99.90;;;;;;5012349;28;20226;-93
2022/11/29 08:55:23;;;;;;;27.45;17.42;;;4.00;99.90;;;;;;5013718;28;20208;-93
2022/11/29 08:57:54;;;;;;;18.98;16.20;;;4.00;99.90;;;;;;5013557;28;20219;-94
2022/11/29 09:00:22;;;;;;;22.02;15.82;;;4.00;99.90;;;;;;5015748;28;20211;-93
2022/11/29 09:02:50;;;;;;;20.15;17.17;;;4.00;99.90;;;;;;5016754;28;20222;-93
2022/11/29 09:05:19;;;;;;;22.25;16.98;;;4.00;99.90;;;;;;5013503;28;20219;-94
2022/11/29 09:07:47;;;;;;;21.92;16.50;;;3.90;99.90;;;;;;5012848;28;20203;-93
2022/11/29 09:10:16;;;;;;;29.52;18.80;;;3.90;99.90;;;;;;5013191;28;20313;-94
2022/11/29 09:12:45;;;;;;;28.00;16.95;;;3.90;99.90;;;;;;5013083;28;20234;-93
2022/11/29 09:15:15;;;;;;;17.90;15.57;;;3.90;99.90;;;;;;5013700;28;20207;-93
2022/11/29 09:17:43;;;;;;;18.27;15.57;;;3.90;99.90;;;;;;5013668;28;20203;-93
2022/11/29 09:20:13;;;;;;;21.48;16.83;;;4.00;99.90;;;;;;5013406;28;20206;-94
2022/11/29 09:22:41;;;;;;;20.13;16.70;;;3.90;99.90;;;;;;5016732;28;20229;-93
2022/11/29 09:25:09;;;;;;;19.27;15.68;;;3.90;99.90;;;;;;5021697;28;20211;-93
2022/11/29 09:27:37;;;;;;;21.17;16.05;;;3.90;99.90;;;;;;5014347;28;20203;-93
2022/11/29 09:30:07;;;;;;;19.73;16.25;;;3.80;99.90;;;;;;5012677;28;20200;-93
2022/11/29 09:32:37;;;;;;;20.23;16.25;;;3.80;99.90;;;;;;5012612;28;20231;-92
2022/11/29 09:35:06;;;;;;;23.95;16.52;;;3.90;99.90;;;;;;5012995;28;20199;-93
2022/11/29 09:37:35;;;;;;;17.55;15.65;;;3.90;99.90;;;;;;5012526;28;20227;-93
2022/11/29 09:40:04;;;;;;;16.20;13.90;;;3.90;99.90;;;;;;5012757;28;20225;-94
2022/11/29 09:42:46;;;;;;;18.00;14.98;;;3.90;99.90;;;;;;5012880;28;20233;-93
2022/11/29 09:45:19;;;;;;;24.17;17.13;;;4.00;99.90;;;;;;5012324;28;20220;-93
2022/11/29 09:48:26;;;;;;;15.57;14.02;;;4.00;99.90;;;;;;5011940;28;20209;-94
2022/11/29 09:51:07;;;;;;;15.75;13.70;;;4.00;99.90;;;;;;5006515;28;20214;-94
2022/11/29 09:53:55;;;;;;;16.30;14.02;;;4.00;99.90;;;;;;5012893;28;20227;-93
2022/11/29 09:56:30;;;;;;;17.50;14.05;;;4.10;99.90;;;;;;5014645;28;20229;-92
2022/11/29 09:59:03;;;;;;;17.50;15.00;;;4.20;99.90;;;;;;5016320;28;20290;-93
2022/11/29 10:01:37;;;;;;;19.80;15.10;;;4.20;99.90;;;;;;5016482;28;20217;-93
2022/11/29 10:04:12;;;;;;;18.05;13.82;;;4.30;99.90;;;;;;5016376;28;20301;-93
2022/11/29 10:06:47;;;;;;;18.05;14.77;;;4.30;99.90;;;;;;5016265;28;20207;-93
2022/11/29 10:09:20;;;;;;;18.15;15.25;;;4.40;99.90;;;;;;5016263;28;20218;-93
2022/11/29 10:11:59;;;;;;;22.17;14.63;;;4.50;99.90;;;;;;5016182;28;20207;-93
2022/11/29 10:14:34;;;;;;;22.75;15.60;;;4.50;99.90;;;;;;5016333;28;20265;-93
2022/11/29 10:17:10;;;;;;;19.70;13.18;;;4.60;99.90;;;;;;5015780;28;20223;-94
2022/11/29 10:19:43;;;;;;;21.77;14.32;;;4.70;99.90;;;;;;5016162;28;20217;-93
2022/11/29 10:22:20;;;;;;;18.95;14.18;;;4.70;99.90;;;;;;5015996;28;20211;-93
2022/11/29 10:24:51;;;;;;;16.58;14.13;;;5.00;99.90;;;;;;5016052;28;20263;-92
2022/11/29 10:27:23;;;;;;;17.65;14.50;;;5.20;99.90;;;;;;5015820;28;20215;-92
2022/11/29 10:29:52;;;;;;;17.55;14.68;;;5.20;99.90;;;;;;5015846;28;20203;-88
2022/11/29 10:32:23;;;;;;;19.80;16.08;;;5.20;99.90;;;;;;5015580;28;20206;-88
2022/11/29 10:34:52;;;;;;;16.67;13.55;;;5.20;99.90;;;;;;5015609;28;20203;-88
2022/11/29 10:37:23;;;;;;;19.80;14.57;;;5.20;99.90;;;;;;5015420;28;20225;-88
2022/11/29 10:39:56;;;;;;;17.98;14.38;;;5.10;99.90;;;;;;5016168;28;20206;-88
2022/11/29 10:45:29;;;;;;;16.58;14.50;;;5.10;99.90;;;;;;5015386;28;20210;-88
2022/11/29 10:48:03;;;;;;;16.25;14.57;;;5.10;99.90;;;;;;5015293;28;20207;-88
2022/11/29 10:50:34;;;;;;;18.25;14.02;;;5.20;99.90;;;;;;5015338;28;20209;-88
2022/11/29 10:53:09;;;;;;;26.05;12.95;;;5.20;99.90;;;;;;5015171;28;20228;-88
2022/11/29 10:55:43;;;;;;;15.98;13.30;;;5.20;99.90;;;;;;5015079;28;20225;-88
2022/11/29 10:58:19;;;;;;;19.63;15.68;;;5.20;99.90;;;;;;5014776;28;20314;-88
2022/11/29 11:00:57;;;;;;;14.90;12.85;;;5.20;99.90;;;;;;5015354;28;20214;-88
2022/11/29 11:03:37;;;;;;;17.35;13.07;;;5.10;99.90;;;;;;5014788;28;20318;-88
2022/11/29 11:06:11;;;;;;;15.45;13.85;;;5.20;99.90;;;;;;5015328;28;20207;-90
2022/11/29 11:08:44;;;;;;;12.50;11.30;;;5.20;99.90;;;;;;5014411;28;20210;-89
2022/11/29 11:11:14;;;;;;;16.02;12.90;;;5.20;99.90;;;;;;5014960;28;20207;-89
2022/11/29 11:13:42;;;;;;;14.77;12.45;;;5.10;99.90;;;;;;5014649;28;20230;-90
2022/11/29 11:16:16;;;;;;;15.98;13.13;;;5.00;99.90;;;;;;5015063;28;20206;-89
2022/11/29 11:18:46;;;;;;;14.98;12.30;;;5.00;99.90;;;;;;5014782;28;20240;-89
2022/11/29 11:21:17;;;;;;;15.75;12.75;;;4.90;99.90;;;;;;5014913;28;20206;-89
2022/11/29 11:23:54;;;;;;;15.40;12.82;;;4.90;99.90;;;;;;5014521;28;20223;-89
2022/11/29 11:26:23;;;;;;;17.92;12.75;;;4.90;99.90;;;;;;5015049;28;20207;-89
2022/11/29 11:28:56;;;;;;;14.15;12.50;;;5.00;99.90;;;;;;5014608;28;20206;-89
2022/11/29 11:31:34;;;;;;;12.98;11.60;;;4.90;99.90;;;;;;5014552;28;20218;-89
2022/11/29 11:34:26;;;;;;;14.30;12.60;;;4.90;99.90;;;;;;5014445;28;20231;-89
2022/11/29 11:37:11;;;;;;;16.90;14.20;;;4.90;99.90;;;;;;5014451;28;20221;-89
2022/11/29 11:39:42;;;;;;;14.32;12.85;;;5.00;99.90;;;;;;5014438;28;20207;-89
2022/11/29 11:44:58;;;;;;;14.82;12.45;;;5.10;99.90;;;;;;5013891;28;20222;-93
2022/11/29 11:47:29;;;;;;;14.35;12.85;;;5.20;99.90;;;;;;5014622;28;20200;-93
2022/11/29 11:50:08;;;;;;;17.33;14.18;;;5.30;99.90;;;;;;5014567;28;20215;-94
2022/11/29 11:52:40;;;;;;;13.55;11.95;;;5.40;99.90;;;;;;5016228;28;20237;-93
2022/11/29 11:55:30;;;;;;;15.20;13.15;;;5.40;99.90;;;;;;5022622;28;20207;-93
2022/11/29 11:58:01;;;;;;;14.25;12.80;;;5.50;99.90;;;;;;5013887;28;20230;-93
2022/11/29 12:00:42;;;;;;;15.20;13.55;;;5.50;99.90;;;;;;5014183;28;20352;-93
2022/11/29 12:03:41;;;;;;;18.88;14.30;;;5.50;99.90;;;;;;5013993;28;20218;-93
2022/11/29 12:06:27;;;;;;;14.77;13.00;;;5.60;99.90;;;;;;5014549;28;20226;-93
2022/11/29 12:09:02;;;;;;;15.77;13.63;;;5.60;99.90;;;;;;5014247;28;20226;-93
2022/11/29 12:11:41;;;;;;;14.40;12.50;;;5.60;99.90;;;;;;5014264;28;20294;-93
2022/11/29 12:14:18;;;;;;;14.80;12.50;;;5.70;99.90;;;;;;5014497;28;20237;-93
2022/11/29 12:16:49;;;;;;;14.82;12.25;;;5.70;99.90;;;;;;5014174;28;20211;-93
2022/11/29 12:19:21;;;;;;;18.63;13.35;;;5.80;99.90;;;;;;5013806;28;20203;-93
2022/11/29 12:21:53;;;;;;;14.68;13.20;;;5.70;99.90;;;;;;5015071;28;20301;-93
2022/11/29 12:24:26;;;;;;;19.95;14.70;;;5.70;99.90;;;;;;5014294;28;20298;-93
2022/11/29 12:27:00;;;;;;;16.83;13.43;;;5.70;99.90;;;;;;5014166;28;20223;-93
2022/11/29 12:29:31;;;;;;;23.58;14.43;;;5.80;99.90;;;;;;5014128;28;20210;-93
2022/11/29 12:32:14;;;;;;;16.10;13.05;;;5.80;99.90;;;;;;5013678;28;20209;-93
2022/11/29 12:35:02;;;;;;;13.57;12.05;;;5.90;99.90;;;;;;5013767;28;20214;-93
2022/11/29 12:37:36;;;;;;;17.27;13.60;;;5.90;99.90;;;;;;5013469;28;20231;-91
2022/11/29 12:40:11;;;;;;;14.25;12.52;;;6.00;99.90;;;;;;5013851;28;20205;-93
2022/11/29 12:42:51;;;;;;;20.38;11.95;;;5.90;99.90;;;;;;5013324;28;20305;-93
2022/11/29 12:45:30;;;;;;;14.02;10.57;;;5.80;99.90;;;;;;5013529;28;20236;-94
2022/11/29 12:48:09;;;;;;;12.50;10.93;;;5.80;99.90;;;;;;5013300;28;20206;-93
2022/11/29 12:50:51;;;;;;;11.38;10.27;;;5.70;99.90;;;;;;5012999;28;20245;-93
2022/11/29 12:53:38;;;;;;;11.98;10.75;;;5.60;99.90;;;;;;5013557;28;20231;-93
2022/11/29 12:56:15;;;;;;;12.13;10.82;;;5.70;99.90;;;;;;5013208;28;20211;-92
2022/11/29 12:58:58;;;;;;;12.20;10.80;;;5.70;99.90;;;;;;5012957;28;20231;-93
2022/11/29 13:01:36;;;;;;;12.00;9.95;;;5.70;99.90;;;;;;5013587;28;20218;-88
2022/11/29 13:04:16;;;;;;;12.27;10.75;;;5.70;99.90;;;;;;5013076;28;20261;-88
2022/11/29 13:06:54;;;;;;;21.80;11.60;;;5.70;99.90;;;;;;5012730;28;20206;-89
2022/11/29 13:09:53;;;;;;;13.15;10.60;;;5.70;99.90;;;;;;5014306;28;20203;-88
2022/11/29 13:12:31;;;;;;;14.15;10.13;;;5.70;99.90;;;;;;5015601;28;20217;-89
2022/11/29 13:15:06;;;;;;;11.75;10.50;;;5.70;99.90;;;;;;5013177;28;20211;-88
2022/11/29 13:17:41;;;;;;;10.98;9.93;;;5.60;99.90;;;;;;5012655;28;20213;-89
2022/11/29 13:20:25;;;;;;;11.45;9.52;;;5.60;99.90;;;;;;5012636;28;20198;-89
2022/11/29 13:23:01;;;;;;;10.05;9.00;;;5.50;99.90;;;;;;5012744;28;20227;-89
2022/11/29 13:25:35;;;;;;;11.07;9.98;;;5.50;99.90;;;;;;5012710;28;20229;-89
2022/11/29 13:28:07;;;;;;;13.30;9.18;;;5.50;99.90;;;;;;5012723;28;20202;-89
2022/11/29 13:30:39;;;;;;;16.60;9.95;;;5.40;99.90;;;;;;5015051;28;20229;-89
2022/11/29 13:33:17;;;;;;;18.75;9.98;;;5.40;99.90;;;;;;5019310;28;20229;-89
2022/11/29 13:35:53;;;;;;;13.57;10.23;;;5.40;99.90;;;;;;5020856;28;20203;-88
2022/11/29 13:38:27;;;;;;;13.32;10.02;;;5.40;99.90;;;;;;5019058;28;20227;-88
2022/11/29 13:41:01;;;;;;;13.57;9.93;;;5.40;99.90;;;;;;5019410;28;20206;-89
2022/11/29 13:43:38;;;;;;;10.88;9.82;;;5.30;99.90;;;;;;5019085;28;20236;-89